Time;durP1;ratioP1;P1;durP2;ratioP2;P2;SDS_P1;SDS_P2;PMS_P1;PMS_P2;Temp;Humidity;BMP_temperature;BMP_pressure;BME280_temperature;BME280_humidity;BME280_pressure;Samples;Min_cycle;Max_cycle;Signal;HPM_P1;HPM_P2
2021/01/31 09:21:50;;;;;;;60.55;35.50;;;153.60;2022.40;;;;;;5282662;23;20116;-68
2021/01/31 09:24:19;;;;;;;77.03;44.78;;;153.60;2022.40;;;;;;5008208;28;20131;-68
2021/01/31 09:26:54;;;;;;;70.20;42.88;;;153.60;1996.80;;;;;;5015057;28;20060;-67
2021/01/31 09:29:22;;;;;;;;;;;153.60;1996.80;;;;;;5016231;28;20022;-69
2021/01/31 09:31:55;;;;;;;70.07;40.50;;;153.60;1996.80;;;;;;5015109;28;19905;-67
2021/01/31 09:34:24;;;;;;;56.63;34.28;;;153.60;1996.80;;;;;;4996251;28;20050;-67
2021/01/31 09:37:11;;;;;;;52.85;30.13;;;128.90;2022.40;;;;;;4995226;28;20069;-68
2021/01/31 09:39:39;;;;;;;53.75;30.95;;;153.60;1996.80;;;;;;4992385;28;20034;-67
2021/01/31 09:42:06;;;;;;;65.47;36.92;;;153.60;1996.80;;;;;;4995380;28;20038;-67
2021/01/31 09:44:36;;;;;;;71.97;41.35;;;153.60;1996.80;;;;;;4995392;28;20060;-67
2021/01/31 09:47:06;;;;;;;71.95;41.05;;;153.60;1996.80;;;;;;4995149;28;20037;-68
2021/01/31 09:49:33;;;;;;;63.90;38.03;;;153.60;1996.80;;;;;;5001624;28;20026;-67
2021/01/31 09:52:06;;;;;;;72.97;37.97;;;153.60;1996.80;;;;;;5002244;28;20034;-66
2021/01/31 09:54:34;;;;;;;92.65;47.78;;;153.60;1996.80;;;;;;5002969;28;20083;-67
2021/01/31 09:57:06;;;;;;;107.65;52.17;;;153.60;1971.20;;;;;;5004751;28;20048;-67
2021/01/31 09:59:36;;;;;;;92.32;46.60;;;153.60;1996.80;;;;;;5004286;28;20068;-67
2021/01/31 10:02:09;;;;;;;95.45;50.53;;;153.60;1996.80;;;;;;5002917;28;20026;-67
2021/01/31 10:04:38;;;;;;;94.47;47.30;;;153.60;1996.80;;;;;;5002465;28;20105;-67
2021/01/31 10:07:10;;;;;;;78.90;43.15;;;128.90;1996.80;;;;;;5003793;28;20025;-66
2021/01/31 10:09:39;;;;;;;90.45;52.90;;;128.90;1996.80;;;;;;5004457;28;20033;-66
2021/01/31 10:12:34;;;;;;;159.00;84.18;;;153.60;1996.80;;;;;;5011923;28;20025;-66
2021/01/31 10:15:10;;;;;;;169.55;79.10;;;153.60;1996.80;;;;;;5013260;28;20041;-67
2021/01/31 10:17:44;;;;;;;210.93;89.75;;;153.60;1996.80;;;;;;5014573;28;20049;-67
2021/01/31 10:20:36;;;;;;;224.23;93.18;;;128.90;1996.80;;;;;;5014397;28;20526;-67
2021/01/31 10:23:16;;;;;;;217.05;87.95;;;128.90;1996.80;;;;;;5014129;28;20146;-67
2021/01/31 10:25:55;;;;;;;229.90;93.07;;;128.90;1996.80;;;;;;5014487;28;20095;-67
2021/01/31 10:28:31;;;;;;;136.85;62.40;;;128.90;1996.80;;;;;;5014016;28;20029;-68
2021/01/31 10:30:58;;;;;;;127.50;68.15;;;128.90;1996.80;;;;;;5014276;28;20030;-67
2021/01/31 10:33:52;;;;;;;109.18;60.72;;;128.90;1996.80;;;;;;5014231;28;20014;-67
2021/01/31 10:36:34;;;;;;;94.72;51.38;;;128.80;1996.80;;;;;;5014166;28;20053;-67
2021/01/31 10:39:02;;;;;;;110.65;59.10;;;128.80;1996.80;;;;;;5013976;28;20034;-66
2021/01/31 10:41:28;;;;;;;92.95;50.25;;;128.80;1996.80;;;;;;5014085;28;20088;-67
2021/01/31 10:44:09;;;;;;;97.38;52.17;;;128.80;1996.80;;;;;;5013934;28;20069;-67
2021/01/31 10:46:36;;;;;;;68.32;39.28;;;128.80;1996.80;;;;;;5013981;28;20041;-67
2021/01/31 10:49:03;;;;;;;57.22;32.53;;;128.80;1996.80;;;;;;4996512;28;20022;-68
2021/01/31 10:51:32;;;;;;;54.15;29.90;;;128.80;1996.80;;;;;;5014053;28;20113;-67
2021/01/31 10:54:00;;;;;;;74.68;38.83;;;128.80;1996.80;;;;;;5013346;28;20026;-66
2021/01/31 10:56:25;;;;;;;73.78;36.08;;;128.80;1996.80;;;;;;5013634;28;20030;-67
2021/01/31 10:58:51;;;;;;;66.18;35.22;;;128.80;1996.80;;;;;;5013829;28;20018;-67
2021/01/31 11:01:17;;;;;;;70.32;35.78;;;128.80;2022.40;;;;;;5013408;28;20037;-67
2021/01/31 11:03:43;;;;;;;61.67;32.67;;;128.90;2022.40;;;;;;5014057;28;20022;-67
2021/01/31 11:06:09;;;;;;;70.00;36.28;;;128.90;1996.80;;;;;;5013597;28;20475;-67
2021/01/31 11:08:35;;;;;;;85.35;42.65;;;128.80;2022.40;;;;;;5013971;28;20029;-67
2021/01/31 11:11:01;;;;;;;92.35;47.53;;;128.90;2022.40;;;;;;5012628;28;20046;-67
2021/01/31 11:13:27;;;;;;;88.13;46.88;;;128.90;1996.80;;;;;;5013779;28;20029;-67
2021/01/31 11:15:53;;;;;;;78.03;43.70;;;128.80;2022.40;;;;;;5013836;28;20459;-67
2021/01/31 11:18:20;;;;;;;76.47;43.83;;;128.80;1996.80;;;;;;5013760;28;20084;-67
2021/01/31 11:20:47;;;;;;;76.53;41.40;;;128.80;2022.40;;;;;;5013966;28;20036;-67
2021/01/31 11:23:13;;;;;;;59.13;32.03;;;128.80;1996.80;;;;;;5013589;28;20049;-67
2021/01/31 11:25:39;;;;;;;68.78;35.00;;;128.80;1996.80;;;;;;5013598;28;20479;-67
2021/01/31 11:28:05;;;;;;;62.78;35.28;;;128.80;2022.40;;;;;;5013342;28;20108;-67
2021/01/31 11:30:31;;;;;;;57.92;31.83;;;128.80;1996.80;;;;;;5013758;28;20057;-67
2021/01/31 11:32:58;;;;;;;54.40;30.85;;;128.80;2022.40;;;;;;5013732;28;20022;-67
2021/01/31 11:35:25;;;;;;;71.07;35.58;;;128.90;2022.40;;;;;;5013591;28;20041;-67
2021/01/31 11:37:51;;;;;;;82.20;40.55;;;128.80;2022.40;;;;;;5013452;28;20026;-67
2021/01/31 11:40:17;;;;;;;141.48;65.38;;;128.90;2022.40;;;;;;5013486;28;20068;-67
2021/01/31 11:42:43;;;;;;;133.02;63.83;;;128.80;2022.40;;;;;;5017519;28;20026;-67
2021/01/31 11:45:10;;;;;;;143.93;77.95;;;128.90;1996.80;;;;;;5017267;28;20030;-67
2021/01/31 11:47:36;;;;;;;157.98;84.88;;;128.80;1996.80;;;;;;5017383;28;20110;-67
2021/01/31 11:50:03;;;;;;;143.88;71.57;;;128.80;1996.80;;;;;;5016702;28;20030;-67
2021/01/31 11:52:29;;;;;;;94.35;48.85;;;128.90;1996.80;;;;;;5017018;28;20120;-67
2021/01/31 11:54:55;;;;;;;93.55;43.83;;;128.80;2022.40;;;;;;5017274;28;20443;-67
2021/01/31 11:57:21;;;;;;;88.75;42.20;;;128.80;2022.40;;;;;;5017090;28;20084;-67
2021/01/31 11:59:46;;;;;;;93.32;43.58;;;128.80;2022.40;;;;;;5017020;28;20033;-67
2021/01/31 12:02:13;;;;;;;89.40;44.25;;;128.80;2022.40;;;;;;5016840;28;20033;-67
2021/01/31 12:04:39;;;;;;;79.45;39.58;;;128.80;2022.40;;;;;;4999387;28;20088;-67
2021/01/31 12:07:09;;;;;;;71.93;40.70;;;128.90;2022.40;;;;;;5016927;28;20399;-67
2021/01/31 12:09:35;;;;;;;71.72;38.38;;;128.90;2022.40;;;;;;5017219;28;20486;-67
2021/01/31 12:12:01;;;;;;;92.10;49.08;;;128.90;2022.40;;;;;;5016754;28;20037;-67
2021/01/31 12:14:27;;;;;;;92.05;50.58;;;128.90;2022.40;;;;;;5017095;28;20021;-67
2021/01/31 12:16:53;;;;;;;89.90;48.85;;;128.90;2022.40;;;;;;5016449;28;20034;-67
2021/01/31 12:19:19;;;;;;;85.28;43.88;;;128.90;2022.40;;;;;;5017039;28;20088;-67
2021/01/31 12:21:45;;;;;;;75.03;39.60;;;128.90;1996.80;;;;;;5016668;28;20029;-67
2021/01/31 12:24:11;;;;;;;76.88;39.70;;;128.90;1996.80;;;;;;5016377;28;20053;-67
2021/01/31 12:26:37;;;;;;;62.05;33.70;;;128.80;1996.80;;;;;;5016587;28;20565;-67
2021/01/31 12:29:04;;;;;;;45.97;26.20;;;128.80;2022.40;;;;;;5016594;28;20022;-68
2021/01/31 12:31:30;;;;;;;38.30;22.88;;;128.80;2022.40;;;;;;5016571;28;20030;-67
2021/01/31 12:33:55;;;;;;;46.40;25.27;;;128.70;1996.80;;;;;;5016454;28;20030;-67
2021/01/31 12:36:21;;;;;;;48.28;25.98;;;128.70;1996.80;;;;;;5016209;28;20026;-67
2021/01/31 12:38:47;;;;;;;57.15;26.13;;;128.80;2022.40;;;;;;5016474;28;20029;-67
2021/01/31 12:41:13;;;;;;;86.28;31.38;;;128.80;2048.00;;;;;;5016391;28;20030;-65
2021/01/31 12:43:38;;;;;;;150.45;85.85;;;128.90;2124.80;;;;;;5016240;28;20117;-66
2021/01/31 12:46:04;;;;;;;173.05;100.85;;;153.60;2073.60;;;;;;5016485;28;20041;-67
2021/01/31 12:48:30;;;;;;;103.40;56.58;;;153.70;2099.20;;;;;;5016194;28;20029;-68
2021/01/31 12:50:56;;;;;;;82.85;46.25;;;153.70;2048.00;;;;;;5016074;28;20087;-67
2021/01/31 12:53:22;;;;;;;68.55;36.83;;;153.60;2022.40;;;;;;5015736;28;20026;-68
2021/01/31 12:55:48;;;;;;;84.30;41.17;;;153.60;1996.80;;;;;;5012762;28;20156;-67
2021/01/31 12:58:14;;;;;;;92.03;47.53;;;128.90;2022.40;;;;;;5015206;28;20430;-67
2021/01/31 13:00:39;;;;;;;63.42;33.13;;;153.60;2099.20;;;;;;5014953;28;20037;-67
2021/01/31 13:03:05;;;;;;;96.43;52.30;;;128.90;2022.40;;;;;;5014675;28;20037;-67
2021/01/31 13:05:31;;;;;;;84.53;44.90;;;153.60;2022.40;;;;;;5014765;28;20156;-68
2021/01/31 13:08:02;;;;;;;101.60;44.22;;;153.60;2048.00;;;;;;5014971;28;20030;-77
2021/01/31 13:10:29;;;;;;;114.60;43.50;;;153.70;2048.00;;;;;;4997110;28;20034;-67
2021/01/31 13:12:55;;;;;;;151.35;61.58;;;153.70;2022.40;;;;;;4995290;28;20026;-67
2021/01/31 13:15:22;;;;;;;143.20;64.22;;;153.60;2022.40;;;;;;4977057;28;20037;-67
2021/01/31 13:17:48;;;;;;;131.40;59.17;;;153.60;2022.40;;;;;;4994865;28;20038;-66
2021/01/31 13:20:14;;;;;;;75.00;39.13;;;153.60;2022.40;;;;;;4977631;28;20030;-67
2021/01/31 13:22:40;;;;;;;77.30;49.38;;;153.60;2022.40;;;;;;4994987;28;20047;-67
2021/01/31 13:25:08;;;;;;;64.53;41.22;;;153.60;2048.00;;;;;;4994879;28;20076;-67
2021/01/31 13:27:34;;;;;;;73.47;47.72;;;153.60;2022.40;;;;;;4979656;28;20049;-67
2021/01/31 13:30:02;;;;;;;80.03;52.80;;;153.60;2022.40;;;;;;4994949;28;20033;-67
2021/01/31 13:32:29;;;;;;;101.40;64.53;;;153.60;2022.40;;;;;;4994564;28;20061;-67
2021/01/31 13:34:55;;;;;;;85.03;54.88;;;153.60;2022.40;;;;;;4994844;28;20470;-67
2021/01/31 13:37:20;;;;;;;65.75;40.63;;;153.60;2022.40;;;;;;4994750;28;20041;-67
2021/01/31 13:39:46;;;;;;;76.40;41.20;;;128.90;2022.40;;;;;;4994597;28;20030;-67
2021/01/31 13:42:12;;;;;;;80.80;49.03;;;128.90;2022.40;;;;;;4994680;28;20082;-67
2021/01/31 13:44:38;;;;;;;81.55;50.00;;;128.90;2022.40;;;;;;4994443;28;20034;-70
2021/01/31 13:47:04;;;;;;;78.82;44.88;;;128.90;2022.40;;;;;;4994365;28;20113;-74
2021/01/31 13:49:29;;;;;;;85.30;47.83;;;128.80;2022.40;;;;;;5001899;28;20380;-70
2021/01/31 13:51:55;;;;;;;74.43;43.83;;;128.80;2022.40;;;;;;5004465;28;20034;-69
2021/01/31 13:54:21;;;;;;;56.28;33.67;;;128.70;2022.40;;;;;;5001685;28;20019;-69
2021/01/31 13:56:47;;;;;;;57.30;33.78;;;128.70;2022.40;;;;;;5003535;28;20048;-69
2021/01/31 13:59:15;;;;;;;62.83;36.70;;;128.70;2022.40;;;;;;5011729;28;20034;-70
2021/01/31 14:01:41;;;;;;;56.45;33.28;;;128.70;2022.40;;;;;;5011362;28;20107;-69
2021/01/31 14:04:06;;;;;;;52.15;31.30;;;128.70;2022.40;;;;;;4986074;28;20076;-70
2021/01/31 14:06:33;;;;;;;48.90;29.75;;;128.70;2048.00;;;;;;5001720;28;20104;-69
2021/01/31 14:08:59;;;;;;;71.65;41.83;;;128.70;2048.00;;;;;;4999592;28;20030;-69
2021/01/31 14:11:25;;;;;;;89.85;48.40;;;128.70;2048.00;;;;;;4989317;28;20178;-69
2021/01/31 14:13:50;;;;;;;79.35;46.30;;;128.70;2048.00;;;;;;4994417;28;20030;-69
2021/01/31 14:16:16;;;;;;;78.00;43.63;;;128.70;2048.00;;;;;;4994046;28;20395;-69
2021/01/31 14:18:42;;;;;;;74.53;37.85;;;128.70;2048.00;;;;;;4998020;28;20114;-69
2021/01/31 14:21:10;;;;;;;63.13;34.53;;;128.70;2073.60;;;;;;5013676;28;20057;-69
2021/01/31 14:23:35;;;;;;;45.97;27.55;;;128.70;2073.60;;;;;;5013307;28;20049;-69
2021/01/31 14:26:04;;;;;;;44.10;28.73;;;128.70;2073.60;;;;;;5013303;28;20096;-69
2021/01/31 14:28:30;;;;;;;45.10;28.02;;;128.70;2048.00;;;;;;5013617;28;20060;-69
2021/01/31 14:30:55;;;;;;;38.80;24.77;;;128.60;2048.00;;;;;;5013747;28;20062;-69
2021/01/31 14:33:21;;;;;;;45.58;27.08;;;128.60;2048.00;;;;;;5010032;28;20034;-69
2021/01/31 14:35:47;;;;;;;49.17;28.38;;;128.60;2048.00;;;;;;4996992;28;20030;-69
2021/01/31 14:38:12;;;;;;;45.03;25.80;;;128.60;2048.00;;;;;;5002364;28;20060;-69
2021/01/31 14:40:38;;;;;;;43.30;25.58;;;128.60;2048.00;;;;;;5003366;28;20030;-69
2021/01/31 14:43:04;;;;;;;46.92;25.90;;;128.50;2048.00;;;;;;5000535;28;20034;-69
2021/01/31 14:45:33;;;;;;;53.70;28.60;;;128.50;2048.00;;;;;;4999923;28;20046;-68
2021/01/31 14:47:58;;;;;;;57.38;29.33;;;128.50;2048.00;;;;;;5000603;28;20476;-69
2021/01/31 14:50:25;;;;;;;55.47;30.92;;;128.50;2048.00;;;;;;5003836;28;20033;-70
2021/01/31 14:52:51;;;;;;;57.15;30.90;;;128.50;2048.00;;;;;;4987207;28;20395;-69
2021/01/31 14:55:23;;;;;;;63.80;32.78;;;128.50;2048.00;;;;;;5001406;28;20022;-69
2021/01/31 14:57:49;;;;;;;60.45;31.95;;;128.50;2048.00;;;;;;5000548;28;20057;-69
2021/01/31 15:00:28;;;;;;;65.07;33.65;;;128.50;2048.00;;;;;;5003974;28;20060;-69
2021/01/31 15:02:54;;;;;;;97.50;53.95;;;128.50;2048.00;;;;;;5012090;28;20088;-71
2021/01/31 15:05:20;;;;;;;285.90;157.85;;;128.50;2048.00;;;;;;5013177;28;20065;-70
2021/01/31 15:07:46;;;;;;;197.77;117.00;;;128.50;2048.00;;;;;;5013428;28;20510;-69
2021/01/31 15:10:13;;;;;;;157.02;98.47;;;128.40;2048.00;;;;;;4994561;28;20041;-69
2021/01/31 15:12:39;;;;;;;148.77;89.88;;;128.40;2048.00;;;;;;5012975;28;20029;-72
2021/01/31 15:15:07;;;;;;;199.57;100.95;;;128.50;2048.00;;;;;;5013162;28;20026;-69
2021/01/31 15:17:35;;;;;;;199.10;99.40;;;128.40;2048.00;;;;;;5016436;28;20460;-73
2021/01/31 15:20:04;;;;;;;213.07;110.15;;;128.50;2048.00;;;;;;5017281;28;20026;-71
2021/01/31 15:22:29;;;;;;;112.60;64.20;;;128.50;2048.00;;;;;;5016680;28;20073;-73
2021/01/31 15:24:57;;;;;;;71.20;41.47;;;128.40;2048.00;;;;;;5015618;28;20124;-72
2021/01/31 15:27:24;;;;;;;57.17;32.42;;;128.40;2048.00;;;;;;5017105;28;20030;-70
2021/01/31 15:29:50;;;;;;;49.10;30.83;;;128.30;2048.00;;;;;;5016792;28;20044;-70
2021/01/31 15:32:16;;;;;;;62.65;40.65;;;128.30;2048.00;;;;;;5016761;28;20022;-69
2021/01/31 15:34:42;;;;;;;58.70;37.17;;;128.30;2048.00;;;;;;5016047;28;20467;-71
2021/01/31 15:37:08;;;;;;;56.97;31.10;;;128.30;2048.00;;;;;;5016726;28;20136;-72
2021/01/31 15:39:33;;;;;;;55.88;31.73;;;128.30;2022.40;;;;;;5015785;28;20468;-71
2021/01/31 15:41:59;;;;;;;48.17;26.60;;;128.30;2048.00;;;;;;5016905;28;20030;-72
2021/01/31 15:44:27;;;;;;;48.08;27.85;;;128.30;2048.00;;;;;;5016543;28;20030;-70
2021/01/31 15:46:54;;;;;;;42.85;23.67;;;128.30;2048.00;;;;;;5015770;28;20030;-70
2021/01/31 15:49:19;;;;;;;55.25;29.55;;;128.30;2048.00;;;;;;5007444;28;20050;-71
2021/01/31 15:51:45;;;;;;;53.97;28.35;;;128.20;2048.00;;;;;;5002387;28;20045;-70
2021/01/31 15:54:11;;;;;;;47.53;27.80;;;128.20;2022.40;;;;;;4996334;28;20475;-71
2021/01/31 15:56:37;;;;;;;48.05;29.48;;;128.20;2022.40;;;;;;5002938;28;20030;-70
2021/01/31 15:59:03;;;;;;;63.92;38.42;;;128.20;2022.40;;;;;;5016235;28;20036;-71
2021/01/31 16:01:28;;;;;;;64.80;38.92;;;128.20;2022.40;;;;;;5015733;28;20033;-69
2021/01/31 16:03:54;;;;;;;66.00;38.70;;;128.10;2048.00;;;;;;5016057;28;20030;-70
2021/01/31 16:06:20;;;;;;;74.10;44.42;;;128.20;2073.60;;;;;;5016027;28;20030;-69
2021/01/31 16:08:46;;;;;;;73.15;44.60;;;128.20;2048.00;;;;;;5015709;28;20022;-70
2021/01/31 16:11:11;;;;;;;63.28;38.17;;;128.20;2048.00;;;;;;5016083;28;20025;-69
2021/01/31 16:13:37;;;;;;;80.97;46.83;;;128.10;2022.40;;;;;;5016057;28;20021;-70
2021/01/31 16:16:03;;;;;;;61.65;35.67;;;128.10;2022.40;;;;;;5015657;28;20375;-70
2021/01/31 16:18:29;;;;;;;49.65;29.33;;;128.00;2022.40;;;;;;4998447;28;20038;-71
2021/01/31 16:20:55;;;;;;;52.63;27.95;;;128.10;2022.40;;;;;;5015877;28;20038;-69
2021/01/31 16:23:20;;;;;;;58.90;30.85;;;128.00;2022.40;;;;;;5015501;28;20050;-69
2021/01/31 16:25:47;;;;;;;49.53;27.85;;;128.00;2048.00;;;;;;5015342;28;20065;-71
2021/01/31 16:28:13;;;;;;;51.90;29.88;;;128.10;2022.40;;;;;;5015509;28;20080;-69
2021/01/31 16:30:39;;;;;;;46.58;25.45;;;128.00;2022.40;;;;;;5015123;28;20545;-69
2021/01/31 16:33:07;;;;;;;42.92;25.08;;;128.00;2022.40;;;;;;5015658;28;20061;-70
2021/01/31 16:35:36;;;;;;;44.70;24.77;;;128.00;2022.40;;;;;;4997475;28;20133;-70
2021/01/31 16:38:03;;;;;;;53.05;28.25;;;128.00;2022.40;;;;;;5015360;28;20037;-69
2021/01/31 16:40:30;;;;;;;59.13;32.50;;;128.00;2022.40;;;;;;5015936;28;20099;-70
2021/01/31 16:42:56;;;;;;;50.20;29.52;;;128.00;2048.00;;;;;;5015497;28;20034;-69
2021/01/31 16:45:28;;;;;;;49.15;28.50;;;128.00;2048.00;;;;;;5014890;28;20117;-71
2021/01/31 16:47:53;;;;;;;48.95;27.70;;;128.00;2048.00;;;;;;5015424;28;20040;-69
2021/01/31 16:50:20;;;;;;;51.65;31.85;;;128.00;2048.00;;;;;;5015114;28;20101;-71
2021/01/31 16:52:46;;;;;;;52.58;33.45;;;128.00;2022.40;;;;;;5013868;28;20034;-68
2021/01/31 16:55:14;;;;;;;46.00;29.52;;;103.30;2022.40;;;;;;5013428;28;20049;-70
2021/01/31 16:57:40;;;;;;;51.33;30.70;;;103.30;2022.40;;;;;;4997014;28;20058;-68
2021/01/31 17:00:08;;;;;;;44.80;27.95;;;128.00;2048.00;;;;;;5014168;28;20088;-69
2021/01/31 17:02:34;;;;;;;42.63;25.73;;;128.00;2048.00;;;;;;5014044;28;20022;-69
2021/01/31 17:05:00;;;;;;;45.83;25.63;;;128.00;2022.40;;;;;;5014382;28;20029;-72
2021/01/31 17:07:25;;;;;;;38.08;21.90;;;103.30;2022.40;;;;;;5014212;28;20025;-70
2021/01/31 17:09:51;;;;;;;40.72;22.77;;;103.30;2022.40;;;;;;5013248;28;20026;-68
2021/01/31 17:12:17;;;;;;;42.10;24.73;;;103.30;2022.40;;;;;;5014024;28;20036;-70
2021/01/31 17:14:44;;;;;;;94.57;54.95;;;103.30;2022.40;;;;;;5013881;28;20033;-78
2021/01/31 17:17:10;;;;;;;93.93;58.53;;;128.50;2252.80;;;;;;4996563;28;20117;-78
2021/01/31 17:19:35;;;;;;;75.60;44.78;;;128.80;2252.80;;;;;;5013995;28;20164;-77
2021/01/31 17:22:01;;;;;;;62.53;35.50;;;128.90;2201.60;;;;;;5013547;28;20030;-72
2021/01/31 17:24:27;;;;;;;61.85;32.47;;;128.90;2099.20;;;;;;5013669;28;20053;-69
2021/01/31 17:26:55;;;;;;;54.72;29.67;;;128.80;2022.40;;;;;;5014090;28;20040;-70
2021/01/31 17:29:23;;;;;;;57.33;31.05;;;128.70;2022.40;;;;;;5013306;28;20145;-71
2021/01/31 17:31:53;;;;;;;59.25;31.75;;;128.60;1996.80;;;;;;5013888;28;20530;-69
2021/01/31 17:34:19;;;;;;;57.17;31.50;;;128.50;2022.40;;;;;;5013811;28;20495;-72
2021/01/31 17:36:45;;;;;;;54.63;29.92;;;128.50;2048.00;;;;;;5013526;28;20018;-70
2021/01/31 17:39:10;;;;;;;51.38;30.10;;;128.50;2022.40;;;;;;5012756;28;20468;-72
2021/01/31 17:41:36;;;;;;;55.42;30.25;;;128.40;2022.40;;;;;;5014051;28;20053;-69
2021/01/31 17:44:02;;;;;;;57.70;30.63;;;128.40;2022.40;;;;;;5013785;28;20032;-70
2021/01/31 17:46:28;;;;;;;61.33;32.78;;;128.30;2022.40;;;;;;5013481;28;20414;-71
2021/01/31 17:48:53;;;;;;;67.38;33.38;;;128.30;2022.40;;;;;;5013679;28;20068;-69
2021/01/31 17:51:19;;;;;;;49.00;28.38;;;128.30;2022.40;;;;;;5013829;28;20029;-69
2021/01/31 17:53:45;;;;;;;49.75;27.73;;;128.30;2022.40;;;;;;5012897;28;20056;-70
2021/01/31 17:56:10;;;;;;;54.22;31.15;;;128.20;2022.40;;;;;;4994470;28;20034;-71
2021/01/31 17:58:36;;;;;;;55.53;30.25;;;128.20;2022.40;;;;;;5009192;28;20060;-70
2021/01/31 18:01:02;;;;;;;60.50;30.77;;;128.10;2022.40;;;;;;5006885;28;20034;-69
2021/01/31 18:03:28;;;;;;;67.60;32.92;;;128.10;2022.40;;;;;;5003065;28;20068;-69
2021/01/31 18:05:54;;;;;;;64.07;32.28;;;128.10;2022.40;;;;;;4998493;28;20096;-70
2021/01/31 18:08:19;;;;;;;60.03;29.35;;;128.10;2022.40;;;;;;4993481;28;20487;-70
2021/01/31 18:10:47;;;;;;;64.60;32.60;;;128.00;2022.40;;;;;;4993945;28;20027;-71
2021/01/31 18:13:13;;;;;;;56.90;29.85;;;128.00;2022.40;;;;;;4993800;28;20047;-70
2021/01/31 18:15:39;;;;;;;59.80;29.55;;;128.00;2048.00;;;;;;4993361;28;20510;-76
2021/01/31 18:18:05;;;;;;;58.97;30.98;;;103.30;2022.40;;;;;;5005926;28;20030;-70
2021/01/31 18:20:30;;;;;;;59.88;30.60;;;128.10;2073.60;;;;;;5012743;28;20056;-71
2021/01/31 18:22:56;;;;;;;57.90;29.05;;;128.00;2048.00;;;;;;5000229;28;20057;-69
2021/01/31 18:25:22;;;;;;;53.92;28.80;;;128.10;2048.00;;;;;;5000926;28;20035;-70
2021/01/31 18:27:48;;;;;;;54.50;29.15;;;128.00;2048.00;;;;;;5004166;28;20049;-70
2021/01/31 18:30:18;;;;;;;50.88;28.67;;;128.10;2048.00;;;;;;5001067;28;20506;-71
2021/01/31 18:32:44;;;;;;;52.63;27.65;;;128.00;2048.00;;;;;;4989749;28;20034;-70
2021/01/31 18:35:10;;;;;;;56.40;30.30;;;128.00;2048.00;;;;;;5003289;28;20049;-69
2021/01/31 18:37:36;;;;;;;55.95;30.02;;;128.00;2048.00;;;;;;5001704;28;20360;-69
2021/01/31 18:40:04;;;;;;;56.63;31.60;;;128.00;2048.00;;;;;;5002760;28;20113;-69
2021/01/31 18:42:30;;;;;;;58.20;34.00;;;128.00;2022.40;;;;;;5001209;28;20452;-70
2021/01/31 18:44:55;;;;;;;56.63;31.15;;;128.00;2022.40;;;;;;5001740;28;20030;-70
2021/01/31 18:47:21;;;;;;;55.75;31.17;;;128.00;2022.40;;;;;;5002527;28;20384;-69
2021/01/31 18:49:51;;;;;;;52.13;29.88;;;128.00;2022.40;;;;;;5000663;28;20023;-69
2021/01/31 18:52:17;;;;;;;47.47;25.55;;;103.30;2022.40;;;;;;5012476;28;20038;-71
2021/01/31 18:54:43;;;;;;;36.90;22.65;;;128.00;2048.00;;;;;;4995540;28;20066;-66
2021/01/31 18:57:08;;;;;;;49.88;29.17;;;128.00;2048.00;;;;;;5012525;28;20026;-68
2021/01/31 18:59:36;;;;;;;47.00;26.90;;;128.00;2048.00;;;;;;5012363;28;20037;-68
2021/01/31 19:02:02;;;;;;;43.60;26.73;;;128.10;2048.00;;;;;;5012904;28;20054;-70
2021/01/31 19:04:28;;;;;;;50.75;30.20;;;128.00;2022.40;;;;;;5012743;28;20383;-68
2021/01/31 19:06:54;;;;;;;42.15;26.85;;;128.00;2048.00;;;;;;5012429;28;20038;-68
2021/01/31 19:09:41;;;;;;;40.58;25.17;;;128.00;2022.40;;;;;;5012700;28;20026;-69
2021/01/31 19:12:07;;;;;;;36.38;22.83;;;103.30;1996.80;;;;;;5012647;28;20022;-68
2021/01/31 19:14:33;;;;;;;41.10;24.48;;;103.30;1996.80;;;;;;5012194;28;20109;-64
2021/01/31 19:16:59;;;;;;;39.35;22.02;;;103.30;1996.80;;;;;;5012661;28;20030;-69
2021/01/31 19:19:25;;;;;;;33.83;21.98;;;103.30;1996.80;;;;;;5012401;28;20034;-67
2021/01/31 19:21:51;;;;;;;35.50;22.65;;;103.30;1996.80;;;;;;5012519;28;20420;-66
2021/01/31 19:24:17;;;;;;;33.38;21.02;;;128.00;2022.40;;;;;;5011992;28;20073;-64
2021/01/31 19:26:42;;;;;;;42.08;22.80;;;103.30;2022.40;;;;;;5012414;28;20134;-65
2021/01/31 19:29:09;;;;;;;40.80;22.05;;;103.30;2022.40;;;;;;5007437;28;20463;-64
2021/01/31 19:31:35;;;;;;;39.30;23.23;;;103.30;2022.40;;;;;;5001599;28;20026;-64
2021/01/31 19:34:00;;;;;;;41.58;21.98;;;103.30;2022.40;;;;;;4999953;28;20584;-65
2021/01/31 19:36:26;;;;;;;39.78;22.92;;;103.30;2022.40;;;;;;5002029;28;20093;-64
2021/01/31 19:38:52;;;;;;;39.88;21.80;;;103.30;2022.40;;;;;;5001359;28;20033;-64
2021/01/31 19:41:18;;;;;;;37.65;22.42;;;103.30;2022.40;;;;;;5000463;28;20014;-64
2021/01/31 19:43:44;;;;;;;35.75;21.02;;;103.30;2022.40;;;;;;4984217;28;20448;-65
2021/01/31 19:46:11;;;;;;;32.20;19.63;;;103.30;2022.40;;;;;;5000659;28;20499;-64
2021/01/31 19:48:38;;;;;;;30.88;19.50;;;103.20;2022.40;;;;;;5000466;28;20080;-65
2021/01/31 19:51:05;;;;;;;31.67;19.63;;;103.30;2022.40;;;;;;5002098;28;20064;-64
2021/01/31 19:53:31;;;;;;;30.17;18.95;;;103.30;2022.40;;;;;;5001031;28;20030;-65
2021/01/31 19:55:56;;;;;;;31.10;19.90;;;103.30;2022.40;;;;;;5000400;28;20163;-66
2021/01/31 19:58:22;;;;;;;36.17;19.65;;;103.30;2022.40;;;;;;5001276;28;20022;-65
2021/01/31 20:00:48;;;;;;;34.22;20.08;;;103.30;2022.40;;;;;;4994696;28;20037;-69
2021/01/31 20:03:15;;;;;;;36.47;21.52;;;128.20;2201.60;;;;;;4996534;28;20073;-67
2021/01/31 20:05:41;;;;;;;34.38;20.25;;;128.20;2073.60;;;;;;4997112;28;20093;-68
2021/01/31 20:08:08;;;;;;;35.42;21.88;;;128.10;2048.00;;;;;;4996908;28;20044;-64
2021/01/31 20:10:35;;;;;;;39.50;22.45;;;128.10;2048.00;;;;;;4997161;28;20030;-66
2021/01/31 20:13:05;;;;;;;36.67;22.33;;;128.10;2022.40;;;;;;5010153;28;20101;-66
2021/01/31 20:15:30;;;;;;;39.15;23.63;;;128.00;2022.40;;;;;;5014043;28;20164;-68
2021/01/31 20:17:56;;;;;;;41.38;24.98;;;128.10;2022.40;;;;;;5015092;28;20086;-67
2021/01/31 20:20:26;;;;;;;43.55;24.35;;;128.00;2022.40;;;;;;5016631;28;20033;-68
2021/01/31 20:22:52;;;;;;;47.40;26.70;;;128.00;2022.40;;;;;;4987307;28;20381;-69
2021/01/31 20:25:18;;;;;;;42.95;24.15;;;128.00;2022.40;;;;;;5006634;28;20065;-66
2021/01/31 20:27:45;;;;;;;39.90;22.13;;;128.00;2022.40;;;;;;4994304;28;20069;-68
2021/01/31 20:30:12;;;;;;;44.60;21.77;;;128.00;2022.40;;;;;;5016766;28;20029;-68
2021/01/31 20:32:38;;;;;;;39.35;20.63;;;128.00;2048.00;;;;;;5014824;28;20173;-65
2021/01/31 20:35:04;;;;;;;35.80;21.17;;;103.30;2022.40;;;;;;5006347;28;20115;-65
2021/01/31 20:37:30;;;;;;;31.73;20.10;;;103.30;2022.40;;;;;;5015364;28;20037;-65
2021/01/31 20:39:56;;;;;;;36.58;21.88;;;103.30;2022.40;;;;;;5015878;28;20026;-67
2021/01/31 20:42:22;;;;;;;37.13;20.92;;;128.00;2022.40;;;;;;5015250;28;20030;-68
2021/01/31 20:44:47;;;;;;;36.15;20.42;;;128.00;2022.40;;;;;;5015454;28;20129;-68
2021/01/31 20:47:13;;;;;;;33.00;19.80;;;103.30;1996.80;;;;;;5015403;28;20061;-68
2021/01/31 20:49:39;;;;;;;33.97;21.33;;;103.30;1996.80;;;;;;5015491;28;20022;-69
2021/01/31 20:52:05;;;;;;;37.67;21.15;;;103.30;1996.80;;;;;;5016328;28;20407;-68
2021/01/31 20:54:30;;;;;;;40.75;22.85;;;103.30;1996.80;;;;;;5016104;28;20052;-68
2021/01/31 20:56:56;;;;;;;36.88;22.65;;;103.30;1996.80;;;;;;5016201;28;20052;-68
2021/01/31 20:59:22;;;;;;;39.13;21.17;;;103.30;1996.80;;;;;;5016376;28;20364;-68
2021/01/31 21:01:54;;;;;;;40.90;23.05;;;103.30;1996.80;;;;;;5015859;28;20030;-68
2021/01/31 21:04:19;;;;;;;50.05;26.25;;;103.30;1996.80;;;;;;5015890;28;20033;-68
2021/01/31 21:06:45;;;;;;;52.50;26.38;;;103.20;1996.80;;;;;;5015744;28;20038;-68
2021/01/31 21:09:11;;;;;;;54.33;26.63;;;103.30;1996.80;;;;;;5015721;28;20025;-67
2021/01/31 21:11:36;;;;;;;43.45;23.92;;;103.30;2022.40;;;;;;5015813;28;20026;-67
2021/01/31 21:14:02;;;;;;;38.17;22.65;;;103.30;1996.80;;;;;;5014660;28;20468;-67
2021/01/31 21:16:28;;;;;;;39.72;23.70;;;103.30;1996.80;;;;;;5015474;28;20079;-68
2021/01/31 21:18:54;;;;;;;40.53;22.65;;;103.30;1996.80;;;;;;5015467;28;20069;-68